createdAt,value
2022-10-23T00:01:47.580Z,38.00
2022-10-23T00:04:21.849Z,42.80
2022-10-23T00:06:49.977Z,45.00
2022-10-23T00:09:21.919Z,44.00
2022-10-23T00:11:51.551Z,38.90
2022-10-23T00:14:23.093Z,49.10
2022-10-23T00:16:51.460Z,46.10
2022-10-23T00:19:19.302Z,45.10
2022-10-23T00:21:47.209Z,41.40
2022-10-23T00:24:15.065Z,44.40
2022-10-23T00:26:43.012Z,42.50
2022-10-23T00:29:11.338Z,48.60
2022-10-23T00:31:39.566Z,40.90
2022-10-23T00:34:08.634Z,46.00
2022-10-23T00:36:38.060Z,42.90
2022-10-23T00:39:06.314Z,41.00
2022-10-23T00:41:35.070Z,46.70
2022-10-23T00:44:05.250Z,46.40
2022-10-23T00:46:33.708Z,44.30
2022-10-23T00:49:02.680Z,49.50
2022-10-23T00:51:39.199Z,46.10
2022-10-23T00:54:25.093Z,47.20
2022-10-23T00:56:56.262Z,49.90
2022-10-23T00:59:24.611Z,42.30
2022-10-23T01:01:52.723Z,46.90
2022-10-23T01:04:22.549Z,46.40
2022-10-23T01:07:02.713Z,51.80
2022-10-23T01:10:07.996Z,46.00
2022-10-23T01:12:47.227Z,46.70
2022-10-23T01:15:21.416Z,46.80
2022-10-23T01:18:00.115Z,44.30
2022-10-23T01:20:45.456Z,54.90
2022-10-23T01:23:29.235Z,51.70
2022-10-23T01:26:24.342Z,46.70
2022-10-23T01:28:57.955Z,48.20
2022-10-23T01:31:37.503Z,52.70
2022-10-23T01:34:22.457Z,53.60
2022-10-23T01:36:53.410Z,46.00
2022-10-23T01:39:27.831Z,57.30
2022-10-23T01:42:22.589Z,50.70
2022-10-23T01:44:58.652Z,50.20
2022-10-23T01:47:31.190Z,49.30
2022-10-23T01:50:06.373Z,53.50
2022-10-23T01:52:34.987Z,44.50
2022-10-23T01:55:07.532Z,47.50
2022-10-23T01:57:39.587Z,43.60
2022-10-23T02:00:12.570Z,43.60
2022-10-23T02:02:54.764Z,52.30
2022-10-23T02:05:29.609Z,48.00
2022-10-23T02:07:59.323Z,41.50
2022-10-23T02:10:43.494Z,43.60
2022-10-23T02:13:25.103Z,44.50
2022-10-23T02:16:24.313Z,42.10
2022-10-23T02:18:52.107Z,41.00
2022-10-23T02:21:41.643Z,42.40
2022-10-23T02:24:13.789Z,43.50
2022-10-23T02:26:57.358Z,49.10
2022-10-23T02:29:34.730Z,42.00
2022-10-23T02:32:03.543Z,50.70
2022-10-23T02:34:31.885Z,44.90
2022-10-23T02:36:59.811Z,45.10
2022-10-23T02:39:28.959Z,30.80
2022-10-23T02:42:03.081Z,33.70
2022-10-23T02:44:42.978Z,26.10
2022-10-23T02:47:39.316Z,34.60
2022-10-23T02:50:34.900Z,30.70
2022-10-23T02:53:28.093Z,28.20
2022-10-23T02:56:28.169Z,25.50
2022-10-23T02:59:21.670Z,26.80
2022-10-23T03:02:19.659Z,25.20
2022-10-23T03:04:48.859Z,27.30
2022-10-23T03:07:19.645Z,32.60
2022-10-23T03:09:47.912Z,27.60
2022-10-23T03:12:15.890Z,28.60
2022-10-23T03:14:43.741Z,28.10
2022-10-23T03:17:11.586Z,28.70
2022-10-23T03:19:39.452Z,30.20
2022-10-23T03:22:07.313Z,25.40
2022-10-23T03:24:35.263Z,25.40
2022-10-23T03:27:03.269Z,24.90
2022-10-23T03:29:32.851Z,18.50
2022-10-23T03:32:00.672Z,23.00
2022-10-23T03:34:28.619Z,25.60
2022-10-23T03:36:56.445Z,18.00
2022-10-23T03:39:24.318Z,21.30
2022-10-23T03:41:52.239Z,18.60
2022-10-23T03:44:22.549Z,15.10
2022-10-23T03:46:50.577Z,15.40
2022-10-23T03:49:18.519Z,16.60
2022-10-23T03:51:52.042Z,11.50
2022-10-23T03:54:23.826Z,15.00
2022-10-23T03:56:56.521Z,14.50
2022-10-23T03:59:25.747Z,12.80
2022-10-23T04:01:54.359Z,21.00
2022-10-23T04:04:25.252Z,17.20
2022-10-23T04:06:53.188Z,11.40
2022-10-23T04:09:21.943Z,15.80
2022-10-23T04:11:49.849Z,12.20
2022-10-23T04:14:18.039Z,14.60
2022-10-23T04:16:45.952Z,9.20
2022-10-23T04:19:14.093Z,13.60
2022-10-23T04:21:42.304Z,15.00
2022-10-23T04:24:10.416Z,13.90
2022-10-23T04:26:38.586Z,12.60
2022-10-23T04:29:06.569Z,15.20
2022-10-23T04:31:34.697Z,13.20
2022-10-23T04:34:02.714Z,12.00
2022-10-23T04:36:32.297Z,9.40
2022-10-23T04:39:08.033Z,13.60
2022-10-23T04:41:39.006Z,11.70
2022-10-23T04:44:08.184Z,7.00
2022-10-23T04:46:39.392Z,9.70
2022-10-23T04:49:07.719Z,8.80
2022-10-23T04:52:10.960Z,7.90
2022-10-23T04:54:54.285Z,6.60
2022-10-23T04:57:43.634Z,9.50
2022-10-23T05:00:15.715Z,10.10
2022-10-23T05:02:48.851Z,9.00
2022-10-23T05:05:18.292Z,7.80
2022-10-23T05:08:15.633Z,9.60
2022-10-23T05:11:06.198Z,7.50
2022-10-23T05:13:39.590Z,9.00
2022-10-23T05:16:07.389Z,12.10
2022-10-23T05:18:45.652Z,8.90
2022-10-23T05:21:28.256Z,8.80
2022-10-23T05:23:57.402Z,6.80
2022-10-23T05:26:26.235Z,8.20
2022-10-23T05:28:54.413Z,10.00
2022-10-23T05:31:24.628Z,11.10
2022-10-23T05:33:55.129Z,13.90
2022-10-23T05:36:24.891Z,11.50
2022-10-23T05:38:58.023Z,14.10
2022-10-23T05:41:26.782Z,13.00
2022-10-23T05:43:58.534Z,15.20
2022-10-23T05:46:44.834Z,10.00
2022-10-23T05:49:41.659Z,7.00
2022-10-23T05:52:28.674Z,8.20
2022-10-23T05:55:16.459Z,11.70
2022-10-23T05:57:49.990Z,13.70
2022-10-23T06:00:23.327Z,14.50
2022-10-23T06:03:00.507Z,9.90
2022-10-23T06:08:20.027Z,9.70
2022-10-23T06:10:49.919Z,7.20
2022-10-23T06:13:17.805Z,11.30
2022-10-23T06:15:45.744Z,7.40
2022-10-23T06:18:20.636Z,7.10
2022-10-23T06:20:54.349Z,5.60
2022-10-23T06:23:25.929Z,4.90
2022-10-23T06:26:05.139Z,6.00
2022-10-23T06:28:40.129Z,5.90
2022-10-23T06:31:09.914Z,5.10
2022-10-23T06:33:37.758Z,5.00
2022-10-23T06:36:10.567Z,6.80
2022-10-23T06:38:40.828Z,5.50
2022-10-23T06:41:35.672Z,5.80
2022-10-23T06:44:04.100Z,6.50
2022-10-23T06:46:47.103Z,6.20
2022-10-23T06:49:33.336Z,6.00
2022-10-23T06:52:02.299Z,7.20
2022-10-23T06:54:30.167Z,7.00
2022-10-23T06:57:21.113Z,4.70
2022-10-23T06:59:50.405Z,8.00
2022-10-23T07:02:19.036Z,6.30
2022-10-23T07:04:48.073Z,5.40
2022-10-23T07:07:18.818Z,10.20
2022-10-23T07:09:48.767Z,6.10
2022-10-23T07:12:39.503Z,5.80
2022-10-23T07:15:28.362Z,6.20
2022-10-23T07:17:57.034Z,5.40
2022-10-23T07:20:25.569Z,4.20
2022-10-23T07:22:57.162Z,5.10
2022-10-23T07:25:28.897Z,5.30
2022-10-23T07:27:56.722Z,4.20
2022-10-23T07:30:25.506Z,7.70
2022-10-23T07:32:55.473Z,4.40
2022-10-23T07:35:41.592Z,7.80
2022-10-23T07:40:46.179Z,11.70
2022-10-23T07:43:18.608Z,6.40
2022-10-23T07:45:48.794Z,9.90
2022-10-23T07:48:23.895Z,3.50
2022-10-23T07:51:08.151Z,8.60
2022-10-23T07:53:38.884Z,5.70
2022-10-23T07:56:20.987Z,6.70
2022-10-23T07:59:13.009Z,5.10
2022-10-23T08:01:43.039Z,7.20
2022-10-23T08:04:11.538Z,3.20
2022-10-23T08:06:45.942Z,7.70
2022-10-23T08:09:13.889Z,7.50
2022-10-23T08:11:42.403Z,7.60
2022-10-23T08:14:10.904Z,5.10
2022-10-23T08:16:39.907Z,6.40
2022-10-23T08:19:19.799Z,8.10
2022-10-23T08:21:48.815Z,6.40
2022-10-23T08:24:18.081Z,5.10
2022-10-23T08:26:49.684Z,6.50
2022-10-23T08:29:18.928Z,6.20
2022-10-23T08:31:47.702Z,5.00
2022-10-23T08:34:22.459Z,4.80
2022-10-23T08:36:51.133Z,7.20
2022-10-23T08:39:19.155Z,9.40
2022-10-23T08:42:04.721Z,6.10
2022-10-23T08:44:40.439Z,4.00
2022-10-23T08:47:13.773Z,13.50
2022-10-23T08:50:06.402Z,6.30
2022-10-23T08:53:01.611Z,4.20
2022-10-23T08:55:40.649Z,4.80
2022-10-23T08:58:08.447Z,5.10
2022-10-23T09:00:36.656Z,5.10
2022-10-23T09:03:05.946Z,3.30
2022-10-23T09:06:03.589Z,5.70
2022-10-23T09:09:13.725Z,4.50
2022-10-23T09:11:57.631Z,5.30
2022-10-23T09:15:03.109Z,3.10
2022-10-23T09:17:35.138Z,3.00
2022-10-23T09:20:18.157Z,4.10
2022-10-23T09:22:47.815Z,2.50
2022-10-23T09:25:22.791Z,3.10
2022-10-23T09:27:56.679Z,2.80
2022-10-23T09:30:32.229Z,5.00
2022-10-23T09:33:01.652Z,4.60
2022-10-23T09:35:30.896Z,3.60
2022-10-23T09:37:58.871Z,4.50
2022-10-23T09:40:43.610Z,4.10
2022-10-23T09:43:17.629Z,6.50
2022-10-23T09:45:57.264Z,3.60
2022-10-23T09:48:26.500Z,8.00
2022-10-23T09:50:57.169Z,3.30
2022-10-23T09:53:33.844Z,3.80
2022-10-23T09:56:12.043Z,3.80
2022-10-23T09:58:52.413Z,4.80
2022-10-23T10:01:26.136Z,5.60
2022-10-23T10:06:32.751Z,5.40
2022-10-23T10:09:07.844Z,3.80
2022-10-23T10:11:58.934Z,3.00
2022-10-23T10:14:48.059Z,3.70
2022-10-23T10:17:47.296Z,4.80
2022-10-23T10:20:24.223Z,2.50
2022-10-23T10:23:13.252Z,2.50
2022-10-23T10:26:10.204Z,2.50
2022-10-23T10:28:40.681Z,2.60
2022-10-23T10:31:26.359Z,5.20
2022-10-23T10:34:40.682Z,2.90
2022-10-23T10:37:33.018Z,3.30
2022-10-23T10:40:14.060Z,3.20
2022-10-23T10:42:42.878Z,3.00
2022-10-23T10:45:39.977Z,3.30
2022-10-23T10:48:44.413Z,4.50
2022-10-23T10:51:47.458Z,2.10
2022-10-23T10:54:36.544Z,2.00
2022-10-23T10:57:14.022Z,2.70
2022-10-23T10:59:46.791Z,3.30
2022-10-23T11:02:28.706Z,3.70
2022-10-23T11:05:00.750Z,3.90
2022-10-23T11:07:37.330Z,2.80
2022-10-23T11:10:18.856Z,3.10
2022-10-23T11:12:48.184Z,2.90
2022-10-23T11:15:23.538Z,5.00
2022-10-23T11:18:06.032Z,4.00
2022-10-23T11:20:45.178Z,4.60
2022-10-23T11:23:37.362Z,5.20
2022-10-23T11:26:07.967Z,2.10
2022-10-23T11:29:13.540Z,2.10
2022-10-23T11:32:06.418Z,2.80
2022-10-23T11:34:51.020Z,1.80
2022-10-23T11:37:20.813Z,3.70
2022-10-23T11:40:21.419Z,3.30
2022-10-23T11:42:50.741Z,2.40
2022-10-23T11:45:49.034Z,3.00
2022-10-23T11:48:36.438Z,12.10
2022-10-23T11:51:05.558Z,4.50
2022-10-23T11:53:33.416Z,2.40
2022-10-23T11:56:01.157Z,4.60
2022-10-23T11:58:45.803Z,1.90
2022-10-23T12:01:24.480Z,3.40
2022-10-23T12:04:03.478Z,2.60
2022-10-23T12:06:40.463Z,2.30
2022-10-23T12:09:40.988Z,7.90
2022-10-23T12:12:08.798Z,6.70
2022-10-23T12:14:42.536Z,2.80
2022-10-23T12:17:22.599Z,2.50
2022-10-23T12:19:51.169Z,2.20
2022-10-23T12:22:21.019Z,4.10
2022-10-23T12:25:04.186Z,5.50
2022-10-23T12:27:42.134Z,3.20
2022-10-23T12:30:39.991Z,2.80
2022-10-23T12:33:16.631Z,3.20
2022-10-23T12:36:05.537Z,8.90
2022-10-23T12:38:35.691Z,3.10
2022-10-23T12:41:17.154Z,3.50
2022-10-23T12:43:54.773Z,5.30
2022-10-23T12:46:35.606Z,4.10
2022-10-23T12:49:17.698Z,3.30
2022-10-23T12:51:46.192Z,3.80
2022-10-23T12:54:19.889Z,3.60
2022-10-23T12:56:48.294Z,7.20
2022-10-23T12:59:20.347Z,4.20
2022-10-23T13:01:52.644Z,4.50
2022-10-23T13:04:29.305Z,3.60
2022-10-23T13:06:59.890Z,2.30
2022-10-23T13:09:32.074Z,2.80
2022-10-23T13:12:24.576Z,4.60
2022-10-23T13:15:07.685Z,1.90
2022-10-23T13:17:37.975Z,3.20
2022-10-23T13:20:27.124Z,2.90
2022-10-23T13:23:16.896Z,2.40
2022-10-23T13:25:56.430Z,2.40
2022-10-23T13:28:26.995Z,3.90
2022-10-23T13:31:20.880Z,2.70
2022-10-23T13:34:05.714Z,3.80
2022-10-23T13:36:37.551Z,3.50
2022-10-23T13:39:11.920Z,2.80
2022-10-23T13:41:45.208Z,2.50
2022-10-23T13:44:18.962Z,3.60
2022-10-23T13:46:48.574Z,3.00
2022-10-23T13:49:16.842Z,2.90
2022-10-23T13:51:51.940Z,4.40
2022-10-23T13:54:25.786Z,2.50
2022-10-23T13:56:55.452Z,3.90
2022-10-23T13:59:24.078Z,8.10
2022-10-23T14:01:52.936Z,3.80
2022-10-23T14:04:21.205Z,2.70
2022-10-23T14:06:49.326Z,3.80
2022-10-23T14:09:18.698Z,2.80
2022-10-23T14:11:46.687Z,3.40
2022-10-23T14:14:14.571Z,4.10
2022-10-23T14:16:42.416Z,4.40
2022-10-23T14:19:11.205Z,5.20
2022-10-23T14:21:39.176Z,6.30
2022-10-23T14:24:07.357Z,4.80
2022-10-23T14:26:35.313Z,4.10
2022-10-23T14:29:07.622Z,3.80
2022-10-23T14:31:39.382Z,4.10
2022-10-23T14:34:07.215Z,7.40
2022-10-23T14:36:49.286Z,7.00
2022-10-23T14:39:18.813Z,10.80
2022-10-23T14:41:47.195Z,6.70
2022-10-23T14:44:15.011Z,6.10
2022-10-23T14:46:43.023Z,8.30
2022-10-23T14:49:11.000Z,5.50
2022-10-23T14:51:38.770Z,6.40
2022-10-23T14:54:07.929Z,5.30
2022-10-23T14:56:38.387Z,6.30
2022-10-23T14:59:08.050Z,8.10
2022-10-23T15:01:45.273Z,14.50
2022-10-23T15:04:15.770Z,14.10
2022-10-23T15:06:43.682Z,7.30
2022-10-23T15:09:11.470Z,8.00
2022-10-23T15:11:40.122Z,6.80
2022-10-23T15:14:08.563Z,8.10
2022-10-23T15:16:41.727Z,10.80
2022-10-23T15:19:18.546Z,8.10
2022-10-23T15:21:48.036Z,8.10
2022-10-23T15:24:17.466Z,12.10
2022-10-23T15:26:45.552Z,16.50
2022-10-23T15:29:14.969Z,13.50
2022-10-23T15:31:47.345Z,11.00
2022-10-23T15:34:19.072Z,11.70
2022-10-23T15:36:48.381Z,14.90
2022-10-23T15:39:19.521Z,49.70
2022-10-23T15:41:50.063Z,44.80
2022-10-23T15:44:19.739Z,19.90
2022-10-23T15:46:48.652Z,10.90
2022-10-23T15:49:16.815Z,10.20
2022-10-23T15:51:45.285Z,12.30
2022-10-23T15:54:19.202Z,7.70
2022-10-23T15:56:50.141Z,8.60
2022-10-23T15:59:20.883Z,7.00
2022-10-23T16:01:49.317Z,9.10
2022-10-23T16:04:18.553Z,11.40
2022-10-23T16:06:46.713Z,12.20
2022-10-23T16:09:15.600Z,12.70
2022-10-23T16:11:43.685Z,11.70
2022-10-23T16:14:15.282Z,14.70
2022-10-23T16:16:43.830Z,11.30
2022-10-23T16:19:12.512Z,9.30
2022-10-23T16:21:41.505Z,10.90
2022-10-23T16:24:10.282Z,15.30
2022-10-23T16:26:39.896Z,14.80
2022-10-23T16:29:09.753Z,17.70
2022-10-23T16:31:37.981Z,11.30
2022-10-23T16:34:06.300Z,12.30
2022-10-23T16:36:34.848Z,11.50
2022-10-23T16:39:25.343Z,9.70
2022-10-23T16:42:26.007Z,10.30
2022-10-23T16:45:07.777Z,14.10
2022-10-23T16:47:36.117Z,9.30
2022-10-23T16:50:04.342Z,28.20
2022-10-23T16:52:33.412Z,33.80
2022-10-23T16:55:01.378Z,22.50
2022-10-23T16:57:29.452Z,33.20
2022-10-23T16:59:57.475Z,45.30
2022-10-23T17:02:25.562Z,48.10
2022-10-23T17:04:53.678Z,25.30
2022-10-23T17:07:24.171Z,48.00
2022-10-23T17:09:52.365Z,54.70
2022-10-23T17:12:20.333Z,25.90
2022-10-23T17:14:48.245Z,27.60
2022-10-23T17:17:16.268Z,39.30
2022-10-23T17:19:45.937Z,27.60
2022-10-23T17:22:15.477Z,60.30
2022-10-23T17:24:46.233Z,31.90
2022-10-23T17:27:17.136Z,107.80
2022-10-23T17:29:45.018Z,70.00
2022-10-23T17:32:13.266Z,78.90
2022-10-23T17:34:41.477Z,94.50
2022-10-23T17:37:10.368Z,132.80
2022-10-23T17:39:38.334Z,93.30
2022-10-23T17:42:06.705Z,91.40
2022-10-23T17:44:34.673Z,74.90
2022-10-23T17:47:02.424Z,67.90
2022-10-23T17:49:30.396Z,70.00
2022-10-23T17:51:58.385Z,49.50
2022-10-23T17:54:27.375Z,53.40
2022-10-23T17:56:56.369Z,98.80
2022-10-23T17:59:24.287Z,79.00
2022-10-23T18:01:52.645Z,63.10
2022-10-23T18:04:21.361Z,67.10
2022-10-23T18:06:52.939Z,68.50
2022-10-23T18:09:22.641Z,86.20
2022-10-23T18:11:51.860Z,58.40
2022-10-23T18:14:21.595Z,43.50
2022-10-23T18:16:51.173Z,111.90
2022-10-23T18:19:19.547Z,148.70
2022-10-23T18:21:48.237Z,143.80
2022-10-23T18:24:17.535Z,125.30
2022-10-23T18:26:47.932Z,84.50
2022-10-23T18:29:17.535Z,63.60
2022-10-23T18:31:48.247Z,55.10
2022-10-23T18:34:24.873Z,47.30
2022-10-23T18:36:54.787Z,48.80
2022-10-23T18:39:25.574Z,42.60
2022-10-23T18:41:56.625Z,32.90
2022-10-23T18:44:29.194Z,25.00
2022-10-23T18:46:59.184Z,27.50
2022-10-23T18:49:28.087Z,27.40
2022-10-23T18:51:58.237Z,36.00
2022-10-23T18:54:26.232Z,30.70
2022-10-23T18:56:54.215Z,33.20
2022-10-23T18:59:22.071Z,36.90
2022-10-23T19:01:50.655Z,43.70
2022-10-23T19:04:19.108Z,48.40
2022-10-23T19:06:48.935Z,84.70
2022-10-23T19:09:17.577Z,54.20
2022-10-23T19:11:45.663Z,49.10
2022-10-23T19:14:13.770Z,39.20
2022-10-23T19:16:51.555Z,42.80
2022-10-23T19:19:23.222Z,48.50
2022-10-23T19:21:52.318Z,39.70
2022-10-23T19:24:33.719Z,76.60
2022-10-23T19:27:02.622Z,90.70
2022-10-23T19:29:31.441Z,106.90
2022-10-23T19:32:00.365Z,66.50
2022-10-23T19:34:28.443Z,72.10
2022-10-23T19:36:56.672Z,102.30
2022-10-23T19:39:25.995Z,89.20
2022-10-23T19:41:54.326Z,74.90
2022-10-23T19:44:22.256Z,64.90
2022-10-23T19:46:50.776Z,68.00
2022-10-23T19:49:18.794Z,60.90
2022-10-23T19:51:51.266Z,46.20
2022-10-23T19:54:21.189Z,46.10
2022-10-23T19:56:49.842Z,62.00
2022-10-23T19:59:18.490Z,65.90
2022-10-23T20:01:48.953Z,47.30
2022-10-23T20:04:18.745Z,23.30
2022-10-23T20:06:47.363Z,19.00
2022-10-23T20:09:15.256Z,15.10
2022-10-23T20:11:45.310Z,22.30
2022-10-23T20:14:13.674Z,26.10
2022-10-23T20:16:44.924Z,27.50
2022-10-23T20:21:47.596Z,19.20
2022-10-23T20:24:17.849Z,28.10
2022-10-23T20:26:49.223Z,25.40
2022-10-23T20:29:17.180Z,32.90
2022-10-23T20:31:45.089Z,32.40
2022-10-23T20:34:13.311Z,35.40
2022-10-23T20:36:46.433Z,25.40
2022-10-23T20:39:19.064Z,26.10
2022-10-23T20:41:47.959Z,25.30
2022-10-23T20:46:50.920Z,26.20
2022-10-23T20:49:19.161Z,23.00
2022-10-23T20:51:55.649Z,25.10
2022-10-23T20:54:26.881Z,26.00
2022-10-23T20:56:57.018Z,26.20
2022-10-23T20:59:25.712Z,24.40
2022-10-23T21:01:55.514Z,22.90
2022-10-23T21:04:27.803Z,22.70
2022-10-23T21:07:09.398Z,25.00
2022-10-23T21:09:39.232Z,24.30
2022-10-23T21:12:08.112Z,26.80
2022-10-23T21:14:36.462Z,70.10
2022-10-23T21:17:04.682Z,34.90
2022-10-23T21:19:32.553Z,27.10
2022-10-23T21:22:00.579Z,41.50
2022-10-23T21:24:28.343Z,36.90
2022-10-23T21:26:56.597Z,27.00
2022-10-23T21:29:24.620Z,29.20
2022-10-23T21:31:57.852Z,30.70
2022-10-23T21:34:26.949Z,32.10
2022-10-23T21:39:44.240Z,26.70
2022-10-23T21:42:13.661Z,29.90
2022-10-23T21:44:41.708Z,26.10
2022-10-23T21:47:09.729Z,23.50
2022-10-23T21:49:38.079Z,23.50
2022-10-23T21:52:06.124Z,19.70
2022-10-23T21:54:34.070Z,21.80
2022-10-23T21:57:03.510Z,24.10
2022-10-23T21:59:35.451Z,25.90
2022-10-23T22:02:04.143Z,20.50
2022-10-23T22:04:32.300Z,30.50
2022-10-23T22:07:00.464Z,26.90
2022-10-23T22:09:28.718Z,27.50
2022-10-23T22:11:56.887Z,22.30
2022-10-23T22:14:24.801Z,37.40
2022-10-23T22:16:53.303Z,25.50
2022-10-23T22:19:22.491Z,24.40
2022-10-23T22:21:51.132Z,19.70
2022-10-23T22:24:19.194Z,23.10
2022-10-23T22:26:53.402Z,24.00
2022-10-23T22:29:23.952Z,25.30
2022-10-23T22:31:52.237Z,22.30
2022-10-23T22:34:48.248Z,24.90
2022-10-23T22:37:14.318Z,29.60
2022-10-23T22:39:42.908Z,25.40
2022-10-23T22:42:11.050Z,19.40
2022-10-23T22:44:39.040Z,18.20
2022-10-23T22:47:07.300Z,15.30
2022-10-23T22:49:35.352Z,15.00
2022-10-23T22:52:03.283Z,17.60
2022-10-23T22:54:31.606Z,21.20
2022-10-23T22:56:59.622Z,21.90
2022-10-23T22:59:27.507Z,14.80
2022-10-23T23:01:55.474Z,21.30
2022-10-23T23:04:37.401Z,14.60
2022-10-23T23:07:12.357Z,14.70
2022-10-23T23:09:42.143Z,19.70
2022-10-23T23:12:12.468Z,21.20
2022-10-23T23:14:41.170Z,19.60
2022-10-23T23:17:10.201Z,19.80
2022-10-23T23:19:38.432Z,15.50
2022-10-23T23:22:06.851Z,12.20
2022-10-23T23:24:34.801Z,16.20
2022-10-23T23:27:02.599Z,14.50
2022-10-23T23:29:31.086Z,17.50
2022-10-23T23:31:58.943Z,19.60
2022-10-23T23:34:26.855Z,18.70
2022-10-23T23:36:54.940Z,16.20
2022-10-23T23:39:22.779Z,15.40
2022-10-23T23:41:50.593Z,16.80
2022-10-23T23:44:18.414Z,17.20
2022-10-23T23:46:46.261Z,10.10
2022-10-23T23:49:14.148Z,16.50
2022-10-23T23:51:42.045Z,13.70
2022-10-23T23:54:10.063Z,12.40
2022-10-23T23:56:38.364Z,12.00
2022-10-23T23:59:06.311Z,13.00
